Time;durP1;ratioP1;P1;durP2;ratioP2;P2;SDS_P1;SDS_P2;PMS_P1;PMS_P2;Temp;Humidity;BMP_temperature;BMP_pressure;BME280_temperature;BME280_humidity;BME280_pressure;Samples;Min_cycle;Max_cycle;Signal;HPM_P1;HPM_P2
2023/03/15 00:01:38;;;;;;;11.23;10.43;;;2.20;99.90;;;;;;5109413;27;20259;-45
2023/03/15 00:04:04;;;;;;;11.60;10.70;;;2.20;99.90;;;;;;5106490;27;20596;-44
2023/03/15 00:06:32;;;;;;;11.57;10.77;;;2.10;99.90;;;;;;5108212;27;20608;-46
2023/03/15 00:09:00;;;;;;;10.75;10.10;;;2.20;99.90;;;;;;5116255;27;20708;-43
2023/03/15 00:11:27;;;;;;;11.25;10.25;;;2.10;99.90;;;;;;5114541;27;20270;-46
2023/03/15 00:13:52;;;;;;;11.30;10.60;;;2.10;99.90;;;;;;5103801;27;20626;-47
2023/03/15 00:16:18;;;;;;;11.67;10.90;;;2.10;99.90;;;;;;5115982;27;20194;-48
2023/03/15 00:18:46;;;;;;;11.90;10.93;;;2.10;99.90;;;;;;5105457;27;20268;-48
2023/03/15 00:21:12;;;;;;;11.40;10.50;;;2.00;99.90;;;;;;5098867;27;20199;-43
2023/03/15 00:23:38;;;;;;;10.80;10.10;;;2.00;99.90;;;;;;5103885;27;20227;-46
2023/03/15 00:26:04;;;;;;;11.70;10.70;;;2.00;99.90;;;;;;5117833;27;20946;-47
2023/03/15 00:28:29;;;;;;;11.47;10.50;;;1.90;99.90;;;;;;5111953;27;20187;-44
2023/03/15 00:31:05;;;;;;;11.57;10.67;;;1.80;99.90;;;;;;5115996;27;20203;-44
2023/03/15 00:33:33;;;;;;;11.43;10.57;;;1.80;99.90;;;;;;5107708;27;20184;-43
2023/03/15 00:36:03;;;;;;;10.93;10.32;;;1.80;99.90;;;;;;5117835;27;20182;-48
2023/03/15 00:38:28;;;;;;;11.38;10.57;;;1.80;99.90;;;;;;5121110;27;20259;-45
2023/03/15 00:40:54;;;;;;;12.03;11.10;;;1.70;99.90;;;;;;5119174;27;20352;-44
2023/03/15 00:43:19;;;;;;;11.13;10.40;;;1.70;99.90;;;;;;5117436;27;20187;-47
2023/03/15 00:45:45;;;;;;;11.50;10.30;;;1.60;99.90;;;;;;5107056;27;20580;-46
2023/03/15 00:48:11;;;;;;;11.80;10.70;;;1.60;99.90;;;;;;5092899;27;20250;-44
2023/03/15 00:50:36;;;;;;;12.03;11.07;;;1.50;99.90;;;;;;5105124;27;20187;-43
2023/03/15 00:53:02;;;;;;;14.40;10.57;;;1.50;99.90;;;;;;5113250;27;20178;-44
2023/03/15 00:55:28;;;;;;;12.20;11.30;;;1.50;99.90;;;;;;5110930;27;20190;-46
2023/03/15 00:57:53;;;;;;;11.50;10.90;;;1.50;99.90;;;;;;5105789;27;20211;-44
2023/03/15 01:00:23;;;;;;;14.37;11.07;;;1.50;99.90;;;;;;5113711;27;21028;-45
2023/03/15 01:02:50;;;;;;;11.40;10.65;;;1.50;99.90;;;;;;5107636;27;20236;-50
2023/03/15 01:05:16;;;;;;;11.98;11.23;;;1.50;99.90;;;;;;5112833;27;20179;-45
2023/03/15 01:07:44;;;;;;;11.70;10.60;;;1.40;99.90;;;;;;5109321;27;20652;-47
2023/03/15 01:10:10;;;;;;;11.80;10.90;;;1.40;99.90;;;;;;5113804;27;20201;-43
2023/03/15 01:12:36;;;;;;;12.35;11.20;;;1.30;99.90;;;;;;5114770;27;20419;-43
2023/03/15 01:15:04;;;;;;;13.43;12.20;;;1.30;99.90;;;;;;5110006;27;20186;-43
2023/03/15 01:17:30;;;;;;;12.20;11.30;;;1.30;99.90;;;;;;5103346;27;20190;-49
2023/03/15 01:19:58;;;;;;;12.03;11.23;;;1.20;99.90;;;;;;5116284;27;20636;-49
2023/03/15 01:22:23;;;;;;;11.65;10.77;;;1.20;99.90;;;;;;5113593;27;20753;-46
2023/03/15 01:24:49;;;;;;;11.93;10.90;;;1.20;99.90;;;;;;5106966;28;20172;-44
2023/03/15 01:27:15;;;;;;;12.60;11.60;;;1.20;99.90;;;;;;5106650;28;20312;-45
2023/03/15 01:29:40;;;;;;;11.93;11.23;;;1.10;99.90;;;;;;5111448;27;20179;-46
2023/03/15 01:32:06;;;;;;;11.77;10.90;;;1.10;99.90;;;;;;5122875;27;20187;-45
2023/03/15 01:34:32;;;;;;;12.57;11.67;;;1.10;99.90;;;;;;5114991;27;20529;-45
2023/03/15 01:36:57;;;;;;;14.10;12.37;;;1.00;99.90;;;;;;5116509;27;20262;-44
2023/03/15 01:39:23;;;;;;;11.93;10.97;;;1.00;99.90;;;;;;5126689;27;20215;-48
2023/03/15 01:41:48;;;;;;;11.97;10.93;;;1.00;99.90;;;;;;5119926;27;20543;-44
2023/03/15 01:44:18;;;;;;;12.43;11.37;;;1.00;99.90;;;;;;5125315;27;20179;-44
2023/03/15 01:46:44;;;;;;;12.77;11.88;;;1.00;99.90;;;;;;5109554;27;20266;-47
2023/03/15 01:49:24;;;;;;;12.23;11.17;;;0.90;99.90;;;;;;5116073;27;20187;-47
2023/03/15 01:52:07;;;;;;;11.70;10.80;;;0.90;99.90;;;;;;5110101;27;20436;-47
2023/03/15 01:54:39;;;;;;;12.40;11.32;;;0.90;99.90;;;;;;5113235;27;20213;-46
2023/03/15 01:57:15;;;;;;;12.07;11.18;;;0.80;99.90;;;;;;5119678;27;20241;-46
2023/03/15 01:59:57;;;;;;;11.85;10.82;;;0.80;99.90;;;;;;5106500;27;20228;-45
2023/03/15 02:02:24;;;;;;;11.32;10.48;;;0.80;99.90;;;;;;5126302;27;20947;-45
2023/03/15 02:05:10;;;;;;;11.20;10.40;;;0.80;99.90;;;;;;5105309;27;20183;-48
2023/03/15 02:07:37;;;;;;;11.40;10.35;;;0.70;99.90;;;;;;5110194;27;20286;-44
2023/03/15 02:10:12;;;;;;;12.05;10.80;;;0.70;99.90;;;;;;5117505;27;20664;-45
2023/03/15 02:12:45;;;;;;;12.32;11.23;;;0.70;99.90;;;;;;5111988;27;20183;-47
2023/03/15 02:15:11;;;;;;;12.15;10.98;;;0.70;99.90;;;;;;5118433;27;20179;-44
2023/03/15 02:17:42;;;;;;;11.15;10.25;;;0.70;99.90;;;;;;5126913;27;20179;-48
2023/03/15 02:20:48;;;;;;;11.38;10.35;;;0.70;99.90;;;;;;5109629;27;20299;-45
2023/03/15 02:23:16;;;;;;;11.45;10.40;;;0.80;99.90;;;;;;5110871;27;20872;-48
2023/03/15 02:26:06;;;;;;;11.30;10.40;;;0.70;99.90;;;;;;5121659;27;20191;-44
2023/03/15 02:28:33;;;;;;;12.32;10.20;;;0.70;99.90;;;;;;5119673;27;20240;-48
2023/03/15 02:30:59;;;;;;;10.18;9.57;;;0.70;99.90;;;;;;5114736;27;20183;-43
2023/03/15 02:33:31;;;;;;;11.30;10.23;;;0.70;99.90;;;;;;5126869;27;20228;-46
2023/03/15 02:36:13;;;;;;;13.30;10.43;;;0.60;99.90;;;;;;5113521;27;20175;-43
2023/03/15 02:38:39;;;;;;;10.75;9.90;;;0.60;99.90;;;;;;5115701;27;20201;-44
2023/03/15 02:41:05;;;;;;;10.90;10.07;;;0.60;99.90;;;;;;5125065;27;20198;-45
2023/03/15 02:43:32;;;;;;;11.30;10.30;;;0.50;99.90;;;;;;5118031;27;20194;-45
2023/03/15 02:45:59;;;;;;;12.13;10.90;;;0.50;99.90;;;;;;5110563;27;20171;-45
2023/03/15 02:48:25;;;;;;;11.90;10.60;;;0.50;99.90;;;;;;5116807;27;20211;-48
2023/03/15 02:50:51;;;;;;;11.27;10.40;;;0.50;99.90;;;;;;5121751;27;20179;-44
2023/03/15 02:53:17;;;;;;;12.10;10.70;;;0.50;99.90;;;;;;5117291;27;20195;-48
2023/03/15 02:55:42;;;;;;;10.80;9.90;;;0.40;99.90;;;;;;5114941;27;20602;-44
2023/03/15 02:58:08;;;;;;;11.20;10.40;;;0.40;99.90;;;;;;5118092;27;20214;-47
2023/03/15 03:00:34;;;;;;;11.93;10.93;;;0.40;99.90;;;;;;5113565;27;20277;-44
2023/03/15 03:02:59;;;;;;;11.47;10.27;;;0.40;99.90;;;;;;5104098;27;20186;-47
2023/03/15 03:05:25;;;;;;;11.47;10.47;;;0.40;99.90;;;;;;5110636;27;20225;-48
2023/03/15 03:07:51;;;;;;;10.93;10.00;;;0.40;99.90;;;;;;5120788;27;20274;-44
2023/03/15 03:10:18;;;;;;;11.83;10.53;;;0.40;99.90;;;;;;5110606;27;20178;-46
2023/03/15 03:12:44;;;;;;;11.77;10.75;;;0.40;99.90;;;;;;5105802;27;20237;-44
2023/03/15 03:15:10;;;;;;;11.88;10.73;;;0.40;99.90;;;;;;5113962;27;20208;-48
2023/03/15 03:17:36;;;;;;;11.48;10.40;;;0.40;99.90;;;;;;5114177;27;20689;-45
2023/03/15 03:20:10;;;;;;;10.87;10.03;;;0.50;99.90;;;;;;5115194;27;20183;-46
2023/03/15 03:22:36;;;;;;;10.52;9.63;;;0.50;99.90;;;;;;5085321;28;20489;-49
2023/03/15 03:25:02;;;;;;;13.05;11.05;;;0.50;99.90;;;;;;5109613;27;20183;-43
2023/03/15 03:27:29;;;;;;;11.20;10.40;;;0.50;99.90;;;;;;5111687;27;20179;-44
2023/03/15 03:29:55;;;;;;;11.60;10.48;;;0.50;99.90;;;;;;5118278;27;20232;-47
2023/03/15 03:32:20;;;;;;;11.60;10.50;;;0.50;99.90;;;;;;5103399;27;20270;-46
2023/03/15 03:34:47;;;;;;;10.90;10.00;;;0.60;99.90;;;;;;5109786;27;20184;-45
2023/03/15 03:37:21;;;;;;;10.93;10.23;;;0.50;99.90;;;;;;5113411;27;20185;-45
2023/03/15 03:39:47;;;;;;;11.10;10.00;;;0.50;99.90;;;;;;5098031;27;20213;-45
2023/03/15 03:42:13;;;;;;;11.23;10.30;;;0.50;99.90;;;;;;5119017;27;20186;-48
2023/03/15 03:44:39;;;;;;;11.63;10.20;;;0.50;99.90;;;;;;5108789;27;20233;-45
2023/03/15 03:47:06;;;;;;;11.82;10.90;;;0.40;99.90;;;;;;5117113;27;20286;-47
2023/03/15 03:49:32;;;;;;;11.10;10.30;;;0.40;99.90;;;;;;5116314;27;20187;-46
2023/03/15 03:51:59;;;;;;;11.20;10.27;;;0.40;99.90;;;;;;5115603;27;20198;-45
2023/03/15 03:54:25;;;;;;;11.23;10.32;;;0.30;99.90;;;;;;5113653;27;21051;-46
2023/03/15 03:56:50;;;;;;;11.27;10.27;;;0.30;99.90;;;;;;5103788;27;20300;-45
2023/03/15 03:59:16;;;;;;;11.37;10.47;;;0.30;99.90;;;;;;5105229;27;20602;-46
2023/03/15 04:01:42;;;;;;;11.63;10.53;;;0.20;99.90;;;;;;5104094;27;20293;-44
2023/03/15 04:04:08;;;;;;;11.73;10.63;;;0.20;99.90;;;;;;5120054;27;20235;-45
2023/03/15 04:06:33;;;;;;;11.70;10.77;;;0.20;99.90;;;;;;5114864;27;20885;-43
2023/03/15 04:09:01;;;;;;;11.07;9.73;;;0.10;99.90;;;;;;5120474;27;20297;-48
2023/03/15 04:11:27;;;;;;;12.27;11.05;;;0.10;99.90;;;;;;5113512;27;20973;-43
2023/03/15 04:13:53;;;;;;;11.70;10.65;;;0.10;99.90;;;;;;5105248;27;20262;-49
2023/03/15 04:16:19;;;;;;;11.50;10.50;;;0.10;99.90;;;;;;5108132;27;20261;-48
2023/03/15 04:18:45;;;;;;;11.75;10.70;;;0.00;99.90;;;;;;5108578;27;20205;-45
2023/03/15 04:21:10;;;;;;;12.50;11.37;;;0.00;99.90;;;;;;5113714;27;20190;-48
2023/03/15 04:23:37;;;;;;;11.20;10.20;;;0.00;99.90;;;;;;5119641;27;20519;-44
2023/03/15 04:26:04;;;;;;;12.15;10.95;;;0.00;99.90;;;;;;5108867;27;20188;-47
2023/03/15 04:28:30;;;;;;;11.82;10.80;;;0.00;99.90;;;;;;5116821;27;20173;-45
2023/03/15 04:30:57;;;;;;;12.25;10.85;;;0.00;99.90;;;;;;5106030;27;20211;-47
2023/03/15 04:33:24;;;;;;;11.20;10.27;;;0.00;99.90;;;;;;5114834;27;20206;-46
2023/03/15 04:35:51;;;;;;;12.05;10.77;;;-0.10;99.90;;;;;;5110433;27;20194;-47
2023/03/15 04:38:17;;;;;;;11.82;10.55;;;-0.10;99.90;;;;;;5120698;27;20205;-43
2023/03/15 04:40:43;;;;;;;10.82;9.75;;;-0.10;99.90;;;;;;5106644;27;20180;-45
2023/03/15 04:43:09;;;;;;;10.87;10.03;;;-0.10;99.90;;;;;;5116068;27;20180;-44
2023/03/15 04:45:34;;;;;;;12.17;11.07;;;-0.10;99.90;;;;;;5108740;27;20189;-45
2023/03/15 04:48:01;;;;;;;13.60;10.67;;;-0.10;99.90;;;;;;5113082;27;20319;-45
2023/03/15 04:50:28;;;;;;;11.52;10.40;;;-0.20;99.90;;;;;;5101755;27;20205;-43
2023/03/15 04:52:54;;;;;;;14.85;11.20;;;-0.10;99.90;;;;;;5108434;27;20549;-46
2023/03/15 04:55:20;;;;;;;11.07;10.17;;;-0.10;99.90;;;;;;5107494;27;20179;-42
2023/03/15 04:57:45;;;;;;;11.13;10.13;;;-0.20;99.90;;;;;;5109594;27;20554;-45
2023/03/15 05:00:12;;;;;;;11.87;10.67;;;-0.10;99.90;;;;;;5106476;27;20568;-44
2023/03/15 05:02:41;;;;;;;13.38;10.90;;;-0.10;99.90;;;;;;5106821;27;20182;-48
2023/03/15 05:05:08;;;;;;;29.20;26.20;;;-0.20;99.90;;;;;;5107262;27;20287;-43
2023/03/15 05:07:34;;;;;;;13.45;11.93;;;-0.20;99.90;;;;;;5119621;27;20189;-46
2023/03/15 05:10:00;;;;;;;11.73;10.55;;;-0.20;99.90;;;;;;5089350;28;20194;-45
2023/03/15 05:12:26;;;;;;;11.17;10.07;;;-0.20;99.90;;;;;;5116817;27;21183;-44
2023/03/15 05:14:52;;;;;;;11.50;10.30;;;-0.20;99.90;;;;;;5109191;27;20428;-44
2023/03/15 05:17:18;;;;;;;12.53;11.20;;;-0.20;99.90;;;;;;5119536;27;20197;-47
2023/03/15 05:19:43;;;;;;;12.23;11.03;;;-0.30;99.90;;;;;;5110031;27;20349;-44
2023/03/15 05:22:09;;;;;;;11.53;10.40;;;-0.30;99.90;;;;;;5109574;27;20226;-45
2023/03/15 05:24:34;;;;;;;13.90;10.33;;;-0.30;99.90;;;;;;5095028;27;20191;-44
2023/03/15 05:27:00;;;;;;;13.73;10.73;;;-0.30;99.90;;;;;;5093697;28;20278;-46
2023/03/15 05:29:26;;;;;;;11.50;10.50;;;-0.30;99.90;;;;;;5106394;28;20195;-43
2023/03/15 05:31:51;;;;;;;13.90;10.13;;;-0.30;99.90;;;;;;5109320;28;20297;-44
2023/03/15 05:34:18;;;;;;;11.63;10.63;;;-0.30;99.90;;;;;;5113823;28;20303;-45
2023/03/15 05:36:44;;;;;;;12.23;11.05;;;-0.30;99.90;;;;;;5103066;28;20195;-44
2023/03/15 05:39:10;;;;;;;13.00;11.13;;;-0.30;99.90;;;;;;5110717;28;20660;-45
2023/03/15 05:41:36;;;;;;;11.77;9.43;;;-0.30;99.90;;;;;;5103102;28;20477;-45
2023/03/15 05:44:02;;;;;;;12.10;9.87;;;-0.30;99.90;;;;;;5107359;28;20189;-48
2023/03/15 05:46:28;;;;;;;15.33;10.73;;;-0.30;99.90;;;;;;5108767;28;20477;-45
2023/03/15 05:48:53;;;;;;;19.70;16.77;;;-0.30;99.90;;;;;;5120695;28;20420;-43
2023/03/15 05:51:19;;;;;;;13.50;11.47;;;-0.30;99.90;;;;;;5111886;28;20259;-43
2023/03/15 05:53:45;;;;;;;12.70;10.90;;;-0.30;99.90;;;;;;5100573;28;20199;-48
2023/03/15 05:56:11;;;;;;;14.63;11.77;;;-0.30;99.90;;;;;;5117235;28;20198;-48
2023/03/15 05:58:36;;;;;;;12.63;10.87;;;-0.30;99.90;;;;;;5114168;28;20475;-45
2023/03/15 06:01:03;;;;;;;11.50;10.40;;;-0.20;99.90;;;;;;5114605;28;20660;-43
2023/03/15 06:03:30;;;;;;;11.63;9.77;;;-0.20;99.90;;;;;;5107100;28;20737;-46
2023/03/15 06:05:59;;;;;;;12.50;11.00;;;-0.10;99.90;;;;;;5100950;28;20192;-42
2023/03/15 06:08:24;;;;;;;12.75;10.63;;;0.00;99.90;;;;;;5116215;28;20194;-45
2023/03/15 06:10:51;;;;;;;14.77;10.03;;;0.00;99.90;;;;;;5120655;28;20728;-44
2023/03/15 06:13:17;;;;;;;16.42;10.75;;;0.10;99.90;;;;;;5107252;28;20604;-45
2023/03/15 06:15:42;;;;;;;12.13;10.87;;;0.10;99.90;;;;;;5118373;27;20207;-44
2023/03/15 06:18:08;;;;;;;45.03;28.47;;;0.10;99.90;;;;;;5118991;27;20203;-41
2023/03/15 06:20:34;;;;;;;39.80;27.67;;;0.20;99.90;;;;;;5124283;27;20193;-44
2023/03/15 06:23:00;;;;;;;14.85;13.05;;;0.20;99.90;;;;;;5093191;27;20231;-47
2023/03/15 06:25:26;;;;;;;46.50;33.33;;;0.30;99.90;;;;;;5086327;28;20415;-45
2023/03/15 06:27:51;;;;;;;40.20;28.90;;;0.30;99.90;;;;;;5119207;27;20187;-43
2023/03/15 06:30:19;;;;;;;17.47;13.33;;;0.40;99.90;;;;;;5124110;27;20232;-45
2023/03/15 06:32:44;;;;;;;14.15;12.80;;;0.40;99.90;;;;;;5123787;27;20175;-44
2023/03/15 06:35:10;;;;;;;17.80;13.37;;;0.50;99.90;;;;;;5112731;27;20186;-43
2023/03/15 06:37:36;;;;;;;22.53;18.97;;;0.60;99.90;;;;;;5124206;27;20190;-49
2023/03/15 06:40:06;;;;;;;18.70;12.07;;;0.60;99.90;;;;;;5123863;27;20198;-43
2023/03/15 06:42:31;;;;;;;12.77;11.48;;;0.70;99.90;;;;;;5123683;27;20238;-48
2023/03/15 06:44:57;;;;;;;12.80;11.50;;;0.80;99.90;;;;;;5111292;27;20228;-42
2023/03/15 06:47:23;;;;;;;15.00;10.20;;;0.90;99.90;;;;;;5118146;27;21022;-44
2023/03/15 06:49:49;;;;;;;12.47;11.17;;;0.90;99.90;;;;;;5112033;27;20447;-45
2023/03/15 06:52:15;;;;;;;20.67;11.52;;;1.10;99.90;;;;;;5118859;27;20195;-42
2023/03/15 06:54:41;;;;;;;11.48;10.48;;;1.20;99.90;;;;;;5123761;27;20215;-45
2023/03/15 06:57:06;;;;;;;13.00;11.60;;;1.20;99.90;;;;;;5118834;27;20214;-46
2023/03/15 06:59:32;;;;;;;11.97;10.60;;;1.30;99.90;;;;;;5123364;27;20264;-43
2023/03/15 07:01:57;;;;;;;11.67;10.27;;;1.40;99.90;;;;;;5123688;27;20171;-44
2023/03/15 07:04:23;;;;;;;12.47;10.97;;;1.50;99.90;;;;;;5123272;27;20189;-48
2023/03/15 07:06:49;;;;;;;11.27;10.27;;;1.60;99.90;;;;;;5123416;27;20582;-44
2023/03/15 07:09:15;;;;;;;10.97;10.07;;;1.70;99.90;;;;;;5123603;27;20232;-42
2023/03/15 07:11:40;;;;;;;11.43;10.30;;;1.80;99.90;;;;;;5121446;27;20441;-43
2023/03/15 07:14:06;;;;;;;11.30;10.20;;;1.90;99.90;;;;;;5095959;27;20207;-45
2023/03/15 07:16:31;;;;;;;12.17;10.97;;;2.00;99.90;;;;;;5109195;27;20184;-42
2023/03/15 07:18:58;;;;;;;11.63;10.60;;;2.10;99.90;;;;;;5123080;27;20317;-43
2023/03/15 07:21:25;;;;;;;10.70;9.80;;;2.20;99.90;;;;;;5123187;27;20171;-44
2023/03/15 07:23:50;;;;;;;12.25;10.93;;;2.30;99.90;;;;;;5111765;27;20300;-43
2023/03/15 07:26:16;;;;;;;11.70;10.60;;;2.40;99.90;;;;;;5123528;27;20216;-45
2023/03/15 07:28:43;;;;;;;11.27;10.37;;;2.50;99.90;;;;;;5122613;27;20459;-42
2023/03/15 07:31:10;;;;;;;11.68;10.57;;;2.60;99.90;;;;;;5117661;27;20183;-44
2023/03/15 07:33:36;;;;;;;11.57;10.40;;;2.70;99.90;;;;;;5123109;27;20171;-43
2023/03/15 07:36:03;;;;;;;11.80;11.00;;;2.80;99.90;;;;;;5112665;27;20184;-44
2023/03/15 07:38:29;;;;;;;12.07;10.70;;;2.90;99.90;;;;;;5122947;27;20207;-43
2023/03/15 07:40:56;;;;;;;11.83;10.83;;;3.10;99.90;;;;;;5110831;27;20176;-45
2023/03/15 07:43:22;;;;;;;11.27;10.30;;;3.40;99.90;;;;;;5113033;27;20180;-44
2023/03/15 07:45:48;;;;;;;10.60;9.85;;;3.60;99.90;;;;;;5109599;27;20183;-44
2023/03/15 07:48:14;;;;;;;10.83;9.80;;;3.90;99.90;;;;;;5114822;27;20960;-46
2023/03/15 07:50:40;;;;;;;10.83;9.93;;;4.10;99.90;;;;;;5121376;27;20459;-44
2023/03/15 07:53:06;;;;;;;11.07;10.27;;;4.20;99.90;;;;;;5122567;27;20175;-46
2023/03/15 07:55:32;;;;;;;11.93;10.93;;;4.40;99.90;;;;;;5122508;27;20947;-44
2023/03/15 07:57:58;;;;;;;11.02;10.32;;;4.60;99.90;;;;;;5122474;27;20421;-42
2023/03/15 08:00:24;;;;;;;11.47;10.40;;;4.80;99.90;;;;;;5117702;27;20544;-46
2023/03/15 08:02:50;;;;;;;12.30;11.07;;;5.00;99.90;;;;;;5122521;27;20190;-48
2023/03/15 08:05:17;;;;;;;11.27;10.50;;;5.20;99.90;;;;;;5122157;27;20191;-44
2023/03/15 08:07:47;;;;;;;11.90;10.85;;;5.30;99.90;;;;;;5118750;27;20167;-45
2023/03/15 08:10:14;;;;;;;10.88;10.15;;;5.40;99.90;;;;;;5122274;27;20203;-48
2023/03/15 08:12:41;;;;;;;10.98;10.13;;;5.50;99.90;;;;;;5122215;27;20187;-47
2023/03/15 08:15:10;;;;;;;10.90;9.98;;;5.60;99.90;;;;;;5112807;27;20709;-46
2023/03/15 08:17:35;;;;;;;11.00;10.05;;;5.60;99.90;;;;;;5107697;27;20218;-44
2023/03/15 08:20:01;;;;;;;11.10;10.20;;;5.80;99.80;;;;;;5118174;27;20293;-46
2023/03/15 08:22:29;;;;;;;11.07;10.10;;;6.00;96.90;;;;;;5110686;27;20700;-45
2023/03/15 08:24:56;;;;;;;12.07;10.90;;;6.20;95.30;;;;;;5121426;27;20554;-44
2023/03/15 08:27:25;;;;;;;10.38;9.55;;;6.40;94.10;;;;;;5122019;27;20204;-47
2023/03/15 08:29:53;;;;;;;11.57;10.57;;;6.60;95.80;;;;;;5121797;27;20179;-47
2023/03/15 08:32:20;;;;;;;10.75;9.85;;;6.70;91.70;;;;;;5122166;27;20206;-45
2023/03/15 08:34:46;;;;;;;10.80;9.90;;;6.80;91.00;;;;;;5121615;27;20765;-45
2023/03/15 08:37:12;;;;;;;10.40;9.60;;;7.20;90.40;;;;;;5121876;27;20413;-48
2023/03/15 08:39:39;;;;;;;10.37;9.60;;;7.40;88.50;;;;;;5120851;27;20514;-44
2023/03/15 08:42:05;;;;;;;9.93;9.13;;;7.60;85.60;;;;;;5120343;27;20449;-44
2023/03/15 08:44:31;;;;;;;10.40;9.70;;;7.20;80.80;;;;;;5107584;27;20426;-45
2023/03/15 08:46:57;;;;;;;10.07;9.23;;;7.00;82.40;;;;;;5112790;27;20209;-45
2023/03/15 08:49:23;;;;;;;11.17;10.27;;;6.90;85.20;;;;;;5121332;27;20195;-45
2023/03/15 08:51:49;;;;;;;10.10;9.40;;;6.80;88.80;;;;;;5099979;27;20203;-46
2023/03/15 08:54:15;;;;;;;10.95;10.00;;;6.60;89.10;;;;;;5120982;27;20186;-44
2023/03/15 08:56:42;;;;;;;10.80;9.80;;;6.50;90.40;;;;;;5118701;27;20191;-47
2023/03/15 08:59:08;;;;;;;10.30;9.60;;;6.40;93.00;;;;;;5119267;27;20513;-44
2023/03/15 09:01:34;;;;;;;10.10;9.20;;;6.20;95.40;;;;;;5121231;27;20222;-44
2023/03/15 09:04:00;;;;;;;9.90;9.17;;;6.10;98.20;;;;;;5121785;27;20187;-48
2023/03/15 09:06:27;;;;;;;10.20;9.30;;;5.90;99.90;;;;;;5121615;27;20289;-44
2023/03/15 09:08:53;;;;;;;9.85;9.10;;;5.80;99.90;;;;;;5120736;27;20718;-46
2023/03/15 09:11:19;;;;;;;10.30;9.50;;;5.50;99.90;;;;;;5121375;27;20269;-46
2023/03/15 09:13:45;;;;;;;10.52;9.77;;;5.40;99.90;;;;;;5114848;27;21052;-42
2023/03/15 09:16:10;;;;;;;9.63;8.80;;;5.30;99.90;;;;;;5120813;27;20189;-43
2023/03/15 09:18:36;;;;;;;10.60;9.80;;;5.10;99.90;;;;;;5117479;27;20633;-43
2023/03/15 09:21:03;;;;;;;10.20;9.40;;;4.90;99.90;;;;;;5102713;28;20694;-42
2023/03/15 09:23:29;;;;;;;10.50;9.70;;;4.80;99.90;;;;;;5120946;27;20237;-47
2023/03/15 09:25:55;;;;;;;10.80;10.10;;;4.80;99.90;;;;;;5120867;27;20691;-45
2023/03/15 09:28:20;;;;;;;10.57;9.50;;;4.80;99.90;;;;;;5121046;27;20328;-44
2023/03/15 09:30:46;;;;;;;10.20;9.50;;;4.70;99.90;;;;;;5121108;28;20201;-43
2023/03/15 09:33:13;;;;;;;11.17;10.37;;;4.70;99.90;;;;;;5120576;28;20235;-43
2023/03/15 09:35:40;;;;;;;11.20;10.10;;;4.60;99.90;;;;;;5120795;28;20213;-46
2023/03/15 09:38:06;;;;;;;10.77;10.07;;;4.50;99.90;;;;;;5113368;28;20585;-43
2023/03/15 09:40:40;;;;;;;11.53;10.80;;;4.60;99.90;;;;;;5120886;28;20183;-44
2023/03/15 09:43:05;;;;;;;11.38;10.50;;;4.80;99.90;;;;;;5119437;28;20179;-46
2023/03/15 09:45:58;;;;;;;10.53;9.70;;;5.10;99.90;;;;;;5108503;28;20183;-44
2023/03/15 09:48:31;;;;;;;12.60;11.60;;;5.60;99.90;;;;;;5110596;28;20798;-47
2023/03/15 09:51:15;;;;;;;12.20;11.20;;;5.90;99.90;;;;;;5121041;27;20171;-44
2023/03/15 09:54:22;;;;;;;11.90;10.90;;;6.10;99.90;;;;;;5094215;28;20194;-46
2023/03/15 09:57:09;;;;;;;11.07;10.20;;;6.20;99.90;;;;;;5111549;27;20199;-45
2023/03/15 09:59:39;;;;;;;11.85;11.13;;;6.20;99.90;;;;;;5119414;27;20221;-44
2023/03/15 10:02:22;;;;;;;11.05;10.15;;;6.20;99.90;;;;;;5125133;27;20190;-45
2023/03/15 10:05:15;;;;;;;11.25;10.30;;;6.20;99.90;;;;;;5124619;27;20186;-48
2023/03/15 10:07:40;;;;;;;10.50;9.80;;;6.20;99.90;;;;;;5087058;27;20222;-43
2023/03/15 10:10:17;;;;;;;10.83;10.10;;;6.00;99.90;;;;;;5124388;27;20218;-46
2023/03/15 10:12:50;;;;;;;11.50;10.70;;;6.00;99.90;;;;;;5122492;27;20179;-44
2023/03/15 10:15:21;;;;;;;11.95;11.10;;;6.10;99.90;;;;;;5121566;27;20585;-45
2023/03/15 10:17:53;;;;;;;11.85;10.95;;;6.00;99.90;;;;;;5122589;27;20190;-45
2023/03/15 10:20:26;;;;;;;12.00;11.02;;;6.00;99.90;;;;;;5123295;27;20274;-43
2023/03/15 10:23:01;;;;;;;11.68;10.88;;;5.80;99.90;;;;;;5122513;27;20227;-43
2023/03/15 10:25:29;;;;;;;14.73;11.00;;;5.60;99.90;;;;;;5111957;27;20171;-43
2023/03/15 10:28:03;;;;;;;11.60;10.80;;;5.70;99.90;;;;;;5110930;27;20176;-46
2023/03/15 10:30:32;;;;;;;15.13;11.70;;;5.80;99.90;;;;;;5124202;27;20235;-45
2023/03/15 10:33:02;;;;;;;11.93;11.32;;;5.80;99.90;;;;;;5124412;27;20286;-44
2023/03/15 10:35:28;;;;;;;11.70;10.93;;;5.70;99.90;;;;;;5115689;27;20176;-46
2023/03/15 10:37:54;;;;;;;11.75;10.98;;;5.60;99.90;;;;;;5099747;27;20186;-43
2023/03/15 10:40:39;;;;;;;11.37;10.57;;;5.40;99.90;;;;;;5123795;27;20609;-43
2023/03/15 10:43:20;;;;;;;11.98;11.18;;;5.20;99.90;;;;;;5120859;27;20961;-45
2023/03/15 10:45:58;;;;;;;12.70;11.70;;;5.20;99.90;;;;;;5110357;27;20263;-42
2023/03/15 10:48:24;;;;;;;12.82;11.93;;;5.30;99.90;;;;;;5123686;27;20233;-46
2023/03/15 10:50:50;;;;;;;13.43;12.23;;;5.40;99.90;;;;;;5100782;27;20282;-44
2023/03/15 10:53:21;;;;;;;13.43;12.30;;;5.30;99.90;;;;;;5123251;27;20416;-43
2023/03/15 10:55:48;;;;;;;12.02;11.25;;;5.40;99.90;;;;;;5123189;27;20580;-44
2023/03/15 10:58:40;;;;;;;11.73;11.02;;;5.40;99.90;;;;;;5123286;27;20183;-45
2023/03/15 11:01:12;;;;;;;11.75;10.90;;;5.40;99.90;;;;;;5123488;27;20182;-45
2023/03/15 11:03:40;;;;;;;11.80;11.00;;;5.50;99.90;;;;;;5122654;27;20266;-43
2023/03/15 11:06:27;;;;;;;11.73;11.13;;;5.70;99.90;;;;;;5123275;27;20179;-45
2023/03/15 11:09:05;;;;;;;12.65;11.85;;;5.90;99.90;;;;;;5123203;27;20175;-45
2023/03/15 11:11:49;;;;;;;11.93;11.13;;;6.10;99.90;;;;;;5116736;27;20179;-44
2023/03/15 11:14:17;;;;;;;11.75;10.95;;;6.30;99.90;;;;;;5113400;27;20190;-49
2023/03/15 11:16:47;;;;;;;12.40;11.20;;;6.40;99.90;;;;;;5104619;27;20186;-44
2023/03/15 11:19:21;;;;;;;11.02;10.13;;;6.70;99.90;;;;;;5112752;27;20214;-46
2023/03/15 11:21:48;;;;;;;11.77;10.95;;;6.50;99.90;;;;;;5122797;27;21013;-44
2023/03/15 11:24:29;;;;;;;11.52;10.82;;;6.60;99.90;;;;;;5123445;27;20203;-44
2023/03/15 11:27:01;;;;;;;11.25;10.43;;;6.70;99.90;;;;;;5122790;27;20240;-46
2023/03/15 11:29:33;;;;;;;11.53;10.73;;;6.80;99.90;;;;;;5123120;27;20183;-46
2023/03/15 11:32:12;;;;;;;12.37;11.37;;;7.30;99.90;;;;;;5122905;27;20941;-45
2023/03/15 11:35:04;;;;;;;11.30;10.50;;;7.70;98.40;;;;;;5122995;27;20429;-46
2023/03/15 11:37:45;;;;;;;10.80;9.93;;;7.80;97.60;;;;;;5122857;27;20488;-45
2023/03/15 11:40:21;;;;;;;11.23;10.53;;;7.70;97.10;;;;;;5122511;27;20466;-46
2023/03/15 11:42:55;;;;;;;11.70;11.00;;;7.70;97.00;;;;;;5122358;27;21026;-43
2023/03/15 11:45:49;;;;;;;11.30;10.60;;;7.60;95.70;;;;;;5111361;27;20410;-45
2023/03/15 11:48:35;;;;;;;11.20;10.38;;;7.40;95.50;;;;;;5101420;27;20457;-45
2023/03/15 11:51:01;;;;;;;11.57;10.75;;;6.70;96.90;;;;;;5118647;27;20216;-43
2023/03/15 11:53:35;;;;;;;10.93;10.23;;;6.70;98.70;;;;;;5117686;27;20179;-44
2023/03/15 11:56:20;;;;;;;11.35;10.60;;;6.60;98.70;;;;;;5122455;27;20252;-43
2023/03/15 11:59:00;;;;;;;10.55;9.95;;;6.50;99.90;;;;;;5121559;27;20210;-45
2023/03/15 12:01:26;;;;;;;11.82;11.02;;;6.40;99.70;;;;;;5120659;27;20316;-47
2023/03/15 12:04:26;;;;;;;11.87;11.00;;;6.50;99.90;;;;;;5118741;27;20286;-46
2023/03/15 12:06:57;;;;;;;11.32;10.43;;;6.60;99.90;;;;;;5121728;27;20412;-43
2023/03/15 12:09:31;;;;;;;11.25;10.45;;;6.70;99.90;;;;;;5122552;27;20198;-44
2023/03/15 12:12:23;;;;;;;11.37;10.67;;;6.80;98.90;;;;;;5121806;27;20182;-47
2023/03/15 12:15:04;;;;;;;11.70;10.90;;;7.00;98.80;;;;;;5108540;27;20440;-48
2023/03/15 12:17:29;;;;;;;10.90;10.27;;;7.20;99.30;;;;;;5122075;27;20425;-44
2023/03/15 12:20:10;;;;;;;10.93;10.33;;;7.60;96.30;;;;;;5115751;27;20465;-46
2023/03/15 12:22:39;;;;;;;10.63;9.90;;;7.80;95.00;;;;;;5121236;27;20230;-47
2023/03/15 12:25:15;;;;;;;10.70;10.00;;;8.00;94.10;;;;;;5121857;27;20419;-44
2023/03/15 12:27:51;;;;;;;11.43;10.83;;;8.00;92.00;;;;;;5122341;27;20450;-47
2023/03/15 12:30:24;;;;;;;11.00;10.40;;;7.90;91.80;;;;;;5117871;27;20410;-45
2023/03/15 12:32:54;;;;;;;11.90;10.90;;;7.60;90.70;;;;;;5121753;27;20903;-44
2023/03/15 12:35:23;;;;;;;11.43;10.70;;;7.60;93.20;;;;;;5103246;27;20430;-45
2023/03/15 12:37:51;;;;;;;13.30;12.13;;;7.40;93.10;;;;;;5121894;27;20415;-45
2023/03/15 12:40:17;;;;;;;11.60;11.00;;;7.70;94.60;;;;;;5121899;27;20468;-46
2023/03/15 12:42:43;;;;;;;12.43;11.53;;;8.00;93.00;;;;;;5098903;27;20439;-44
2023/03/15 12:45:15;;;;;;;11.23;10.43;;;8.10;92.70;;;;;;5112353;27;20436;-44
2023/03/15 12:47:52;;;;;;;10.80;10.20;;;8.40;90.80;;;;;;5118415;27;20239;-44